sensor_id;sensor_type;location;lat;lon;timestamp;pressure;altitude;pressure_sealevel;temperature
69186;BMP280;56298;49.246;9.410;2022-11-23T00:00:36;98071.38;;;3.09
69186;BMP280;56298;49.246;9.410;2022-11-23T00:03:02;98070.31;;;3.22
69186;BMP280;56298;49.246;9.410;2022-11-23T00:05:28;98068.59;;;3.17
69186;BMP280;56298;49.246;9.410;2022-11-23T00:07:54;98069.53;;;3.00
69186;BMP280;56298;49.246;9.410;2022-11-23T00:10:20;98074.72;;;3.05
69186;BMP280;56298;49.246;9.410;2022-11-23T00:12:45;98072.38;;;3.04
69186;BMP280;56298;49.246;9.410;2022-11-23T00:15:12;98074.28;;;3.03
69186;BMP280;56298;49.246;9.410;2022-11-23T00:17:38;98076.47;;;3.10
69186;BMP280;56298;49.246;9.410;2022-11-23T00:20:05;98072.53;;;3.20
69186;BMP280;56298;49.246;9.410;2022-11-23T00:22:30;98079.56;;;3.21
69186;BMP280;56298;49.246;9.410;2022-11-23T00:24:56;98077.97;;;3.20
69186;BMP280;56298;49.246;9.410;2022-11-23T00:27:21;98080.75;;;3.11
69186;BMP280;56298;49.246;9.410;2022-11-23T00:29:46;98078.38;;;2.88
69186;BMP280;56298;49.246;9.410;2022-11-23T00:32:12;98080.50;;;2.83
69186;BMP280;56298;49.246;9.410;2022-11-23T00:34:37;98080.63;;;2.86
69186;BMP280;56298;49.246;9.410;2022-11-23T00:37:02;98086.56;;;2.80
69186;BMP280;56298;49.246;9.410;2022-11-23T00:39:27;98093.50;;;2.68
69186;BMP280;56298;49.246;9.410;2022-11-23T00:41:53;98083.84;;;2.58
69186;BMP280;56298;49.246;9.410;2022-11-23T00:44:18;98082.84;;;2.63
69186;BMP280;56298;49.246;9.410;2022-11-23T00:46:43;98087.50;;;2.62
69186;BMP280;56298;49.246;9.410;2022-11-23T00:49:08;98087.94;;;2.64
69186;BMP280;56298;49.246;9.410;2022-11-23T00:51:35;98084.47;;;2.64
69186;BMP280;56298;49.246;9.410;2022-11-23T00:54:02;98082.78;;;2.72
69186;BMP280;56298;49.246;9.410;2022-11-23T00:56:29;98094.28;;;2.69
69186;BMP280;56298;49.246;9.410;2022-11-23T00:58:56;98099.25;;;2.67
69186;BMP280;56298;49.246;9.410;2022-11-23T01:01:23;98095.28;;;2.64
69186;BMP280;56298;49.246;9.410;2022-11-23T01:03:51;98090.47;;;2.70
69186;BMP280;56298;49.246;9.410;2022-11-23T01:06:22;98092.91;;;2.62
69186;BMP280;56298;49.246;9.410;2022-11-23T01:08:49;98095.31;;;2.55
69186;BMP280;56298;49.246;9.410;2022-11-23T01:11:15;98089.13;;;2.55
69186;BMP280;56298;49.246;9.410;2022-11-23T01:13:41;98092.34;;;2.39
69186;BMP280;56298;49.246;9.410;2022-11-23T01:16:12;98101.22;;;2.18
69186;BMP280;56298;49.246;9.410;2022-11-23T01:18:38;98095.03;;;2.18
69186;BMP280;56298;49.246;9.410;2022-11-23T01:21:03;98098.84;;;2.17
69186;BMP280;56298;49.246;9.410;2022-11-23T01:23:28;98090.41;;;2.18
69186;BMP280;56298;49.246;9.410;2022-11-23T01:25:54;98092.94;;;2.23
69186;BMP280;56298;49.246;9.410;2022-11-23T01:28:20;98095.03;;;2.18
69186;BMP280;56298;49.246;9.410;2022-11-23T01:30:45;98088.22;;;2.11
69186;BMP280;56298;49.246;9.410;2022-11-23T01:33:10;98096.97;;;2.08
69186;BMP280;56298;49.246;9.410;2022-11-23T01:35:35;98099.84;;;2.03
69186;BMP280;56298;49.246;9.410;2022-11-23T01:38:01;98086.78;;;2.14
69186;BMP280;56298;49.246;9.410;2022-11-23T01:40:26;98090.09;;;2.11
69186;BMP280;56298;49.246;9.410;2022-11-23T01:42:57;98096.75;;;2.22
69186;BMP280;56298;49.246;9.410;2022-11-23T01:48:02;98095.91;;;2.31
69186;BMP280;56298;49.246;9.410;2022-11-23T01:50:29;98102.53;;;2.42
69186;BMP280;56298;49.246;9.410;2022-11-23T01:52:55;98100.53;;;2.60
69186;BMP280;56298;49.246;9.410;2022-11-23T01:55:20;98097.63;;;2.65
69186;BMP280;56298;49.246;9.410;2022-11-23T01:57:46;98104.41;;;2.50
69186;BMP280;56298;49.246;9.410;2022-11-23T02:00:12;98101.50;;;2.25
69186;BMP280;56298;49.246;9.410;2022-11-23T02:02:41;98098.03;;;2.25
69186;BMP280;56298;49.246;9.410;2022-11-23T02:05:10;98107.25;;;2.24
69186;BMP280;56298;49.246;9.410;2022-11-23T02:07:38;98103.44;;;2.16
69186;BMP280;56298;49.246;9.410;2022-11-23T02:10:03;98108.75;;;2.04
69186;BMP280;56298;49.246;9.410;2022-11-23T02:12:29;98112.22;;;2.04
69186;BMP280;56298;49.246;9.410;2022-11-23T02:14:54;98118.72;;;2.21
69186;BMP280;56298;49.246;9.410;2022-11-23T02:17:19;98116.47;;;2.32
69186;BMP280;56298;49.246;9.410;2022-11-23T02:20:02;98118.03;;;2.33
69186;BMP280;56298;49.246;9.410;2022-11-23T02:22:34;98120.75;;;2.33
69186;BMP280;56298;49.246;9.410;2022-11-23T02:25:08;98120.44;;;2.25
69186;BMP280;56298;49.246;9.410;2022-11-23T02:27:35;98112.50;;;2.29
69186;BMP280;56298;49.246;9.410;2022-11-23T02:30:02;98113.75;;;2.23
69186;BMP280;56298;49.246;9.410;2022-11-23T02:32:28;98118.41;;;2.14
69186;BMP280;56298;49.246;9.410;2022-11-23T02:34:53;98115.22;;;2.20
69186;BMP280;56298;49.246;9.410;2022-11-23T02:37:19;98119.63;;;2.34
69186;BMP280;56298;49.246;9.410;2022-11-23T02:39:48;98121.91;;;2.14
69186;BMP280;56298;49.246;9.410;2022-11-23T02:42:15;98131.25;;;2.34
69186;BMP280;56298;49.246;9.410;2022-11-23T02:45:03;98123.88;;;2.44
69186;BMP280;56298;49.246;9.410;2022-11-23T02:47:32;98124.28;;;2.55
69186;BMP280;56298;49.246;9.410;2022-11-23T02:49:57;98128.09;;;2.54
69186;BMP280;56298;49.246;9.410;2022-11-23T02:52:23;98131.44;;;2.59
69186;BMP280;56298;49.246;9.410;2022-11-23T02:54:48;98124.06;;;2.69
69186;BMP280;56298;49.246;9.410;2022-11-23T02:57:13;98125.84;;;2.86
69186;BMP280;56298;49.246;9.410;2022-11-23T02:59:39;98127.06;;;2.97
69186;BMP280;56298;49.246;9.410;2022-11-23T03:02:04;98131.22;;;2.95
69186;BMP280;56298;49.246;9.410;2022-11-23T03:04:30;98130.44;;;2.94
69186;BMP280;56298;49.246;9.410;2022-11-23T03:06:56;98130.19;;;2.78
69186;BMP280;56298;49.246;9.410;2022-11-23T03:09:22;98131.63;;;2.75
69186;BMP280;56298;49.246;9.410;2022-11-23T03:11:47;98131.00;;;2.78
69186;BMP280;56298;49.246;9.410;2022-11-23T03:14:13;98128.66;;;2.68
69186;BMP280;56298;49.246;9.410;2022-11-23T03:16:38;98132.91;;;2.78
69186;BMP280;56298;49.246;9.410;2022-11-23T03:19:04;98119.69;;;2.76
69186;BMP280;56298;49.246;9.410;2022-11-23T03:21:30;98118.25;;;2.79
69186;BMP280;56298;49.246;9.410;2022-11-23T03:23:55;98119.81;;;2.80
69186;BMP280;56298;49.246;9.410;2022-11-23T03:26:20;98122.88;;;2.78
69186;BMP280;56298;49.246;9.410;2022-11-23T03:28:46;98125.41;;;2.84
69186;BMP280;56298;49.246;9.410;2022-11-23T03:31:11;98121.09;;;2.83
69186;BMP280;56298;49.246;9.410;2022-11-23T03:33:36;98126.13;;;2.93
69186;BMP280;56298;49.246;9.410;2022-11-23T03:36:02;98125.34;;;2.92
69186;BMP280;56298;49.246;9.410;2022-11-23T03:38:28;98123.97;;;2.77
69186;BMP280;56298;49.246;9.410;2022-11-23T03:40:53;98126.22;;;2.75
69186;BMP280;56298;49.246;9.410;2022-11-23T03:43:18;98124.91;;;2.82
69186;BMP280;56298;49.246;9.410;2022-11-23T03:45:44;98123.72;;;2.70
69186;BMP280;56298;49.246;9.410;2022-11-23T03:48:09;98111.13;;;2.74
69186;BMP280;56298;49.246;9.410;2022-11-23T03:50:35;98113.94;;;2.78
69186;BMP280;56298;49.246;9.410;2022-11-23T03:53:00;98116.88;;;2.94
69186;BMP280;56298;49.246;9.410;2022-11-23T03:55:26;98118.28;;;3.00
69186;BMP280;56298;49.246;9.410;2022-11-23T03:57:51;98118.00;;;3.14
69186;BMP280;56298;49.246;9.410;2022-11-23T04:00:19;98120.75;;;3.05
69186;BMP280;56298;49.246;9.410;2022-11-23T04:02:45;98112.50;;;3.23
69186;BMP280;56298;49.246;9.410;2022-11-23T04:05:10;98108.69;;;3.24
69186;BMP280;56298;49.246;9.410;2022-11-23T04:07:36;98109.88;;;3.14
69186;BMP280;56298;49.246;9.410;2022-11-23T04:10:01;98113.97;;;3.21
69186;BMP280;56298;49.246;9.410;2022-11-23T04:12:27;98115.75;;;3.16
69186;BMP280;56298;49.246;9.410;2022-11-23T04:14:52;98115.34;;;3.05
69186;BMP280;56298;49.246;9.410;2022-11-23T04:17:17;98117.00;;;3.19
69186;BMP280;56298;49.246;9.410;2022-11-23T04:19:43;98106.66;;;3.21
69186;BMP280;56298;49.246;9.410;2022-11-23T04:22:08;98107.59;;;3.25
69186;BMP280;56298;49.246;9.410;2022-11-23T04:24:34;98115.44;;;3.18
69186;BMP280;56298;49.246;9.410;2022-11-23T04:26:59;98111.19;;;3.08
69186;BMP280;56298;49.246;9.410;2022-11-23T04:29:24;98100.19;;;3.13
69186;BMP280;56298;49.246;9.410;2022-11-23T04:31:50;98101.16;;;3.09
69186;BMP280;56298;49.246;9.410;2022-11-23T04:34:15;98103.47;;;2.98
69186;BMP280;56298;49.246;9.410;2022-11-23T04:36:40;98105.00;;;3.08
69186;BMP280;56298;49.246;9.410;2022-11-23T04:39:06;98098.25;;;3.14
69186;BMP280;56298;49.246;9.410;2022-11-23T04:41:31;98105.00;;;2.86
69186;BMP280;56298;49.246;9.410;2022-11-23T04:43:57;98106.28;;;2.80
69186;BMP280;56298;49.246;9.410;2022-11-23T04:46:22;98101.97;;;2.67
69186;BMP280;56298;49.246;9.410;2022-11-23T04:48:47;98100.28;;;2.53
69186;BMP280;56298;49.246;9.410;2022-11-23T04:51:13;98105.00;;;2.56
69186;BMP280;56298;49.246;9.410;2022-11-23T04:53:38;98107.94;;;2.72
69186;BMP280;56298;49.246;9.410;2022-11-23T04:56:04;98106.28;;;2.80
69186;BMP280;56298;49.246;9.410;2022-11-23T04:58:29;98104.50;;;2.84
69186;BMP280;56298;49.246;9.410;2022-11-23T05:00:56;98103.41;;;2.85
69186;BMP280;56298;49.246;9.410;2022-11-23T05:03:21;98109.47;;;2.82
69186;BMP280;56298;49.246;9.410;2022-11-23T05:05:47;98108.63;;;2.69
69186;BMP280;56298;49.246;9.410;2022-11-23T05:08:12;98114.47;;;2.71
69186;BMP280;56298;49.246;9.410;2022-11-23T05:10:37;98108.97;;;2.89
69186;BMP280;56298;49.246;9.410;2022-11-23T05:13:03;98101.34;;;2.82
69186;BMP280;56298;49.246;9.410;2022-11-23T05:15:28;98100.31;;;2.96
69186;BMP280;56298;49.246;9.410;2022-11-23T05:18:00;98112.31;;;3.07
69186;BMP280;56298;49.246;9.410;2022-11-23T05:20:25;98104.88;;;3.04
69186;BMP280;56298;49.246;9.410;2022-11-23T05:22:50;98099.78;;;3.02
69186;BMP280;56298;49.246;9.410;2022-11-23T05:25:16;98106.13;;;3.07
69186;BMP280;56298;49.246;9.410;2022-11-23T05:27:41;98105.25;;;3.15
69186;BMP280;56298;49.246;9.410;2022-11-23T05:30:07;98103.47;;;3.19
69186;BMP280;56298;49.246;9.410;2022-11-23T05:32:32;98106.91;;;3.28
69186;BMP280;56298;49.246;9.410;2022-11-23T05:34:59;98102.88;;;3.35
69186;BMP280;56298;49.246;9.410;2022-11-23T05:37:24;98099.16;;;3.39
69186;BMP280;56298;49.246;9.410;2022-11-23T05:39:50;98096.97;;;3.32
69186;BMP280;56298;49.246;9.410;2022-11-23T05:42:15;98093.84;;;3.30
69186;BMP280;56298;49.246;9.410;2022-11-23T05:44:40;98093.63;;;3.14
69186;BMP280;56298;49.246;9.410;2022-11-23T05:47:06;98098.78;;;3.28
69186;BMP280;56298;49.246;9.410;2022-11-23T05:49:32;98101.69;;;3.23
69186;BMP280;56298;49.246;9.410;2022-11-23T05:51:57;98098.31;;;3.26
69186;BMP280;56298;49.246;9.410;2022-11-23T05:54:22;98108.59;;;3.33
69186;BMP280;56298;49.246;9.410;2022-11-23T05:56:47;98098.34;;;3.39
69186;BMP280;56298;49.246;9.410;2022-11-23T05:59:13;98102.78;;;3.43
69186;BMP280;56298;49.246;9.410;2022-11-23T06:01:38;98097.03;;;3.45
69186;BMP280;56298;49.246;9.410;2022-11-23T06:04:03;98094.66;;;3.43
69186;BMP280;56298;49.246;9.410;2022-11-23T06:06:30;98097.25;;;3.40
69186;BMP280;56298;49.246;9.410;2022-11-23T06:08:56;98089.66;;;3.33
69186;BMP280;56298;49.246;9.410;2022-11-23T06:11:21;98094.53;;;3.40
69186;BMP280;56298;49.246;9.410;2022-11-23T06:13:47;98098.50;;;3.42
69186;BMP280;56298;49.246;9.410;2022-11-23T06:16:13;98101.44;;;3.50
69186;BMP280;56298;49.246;9.410;2022-11-23T06:18:38;98100.91;;;3.56
69186;BMP280;56298;49.246;9.410;2022-11-23T06:21:03;98103.72;;;3.60
69186;BMP280;56298;49.246;9.410;2022-11-23T06:23:28;98098.44;;;3.64
69186;BMP280;56298;49.246;9.410;2022-11-23T06:25:54;98103.84;;;3.64
69186;BMP280;56298;49.246;9.410;2022-11-23T06:28:19;98106.75;;;3.80
69186;BMP280;56298;49.246;9.410;2022-11-23T06:30:44;98110.22;;;3.80
69186;BMP280;56298;49.246;9.410;2022-11-23T06:33:10;98101.72;;;3.69
69186;BMP280;56298;49.246;9.410;2022-11-23T06:35:35;98102.94;;;3.59
69186;BMP280;56298;49.246;9.410;2022-11-23T06:38:00;98099.22;;;3.52
69186;BMP280;56298;49.246;9.410;2022-11-23T06:40:26;98104.47;;;3.48
69186;BMP280;56298;49.246;9.410;2022-11-23T06:42:57;98112.09;;;3.67
69186;BMP280;56298;49.246;9.410;2022-11-23T06:45:23;98120.78;;;3.61
69186;BMP280;56298;49.246;9.410;2022-11-23T06:47:48;98121.81;;;3.68
69186;BMP280;56298;49.246;9.410;2022-11-23T06:50:14;98120.38;;;3.83
69186;BMP280;56298;49.246;9.410;2022-11-23T06:52:39;98116.88;;;3.70
69186;BMP280;56298;49.246;9.410;2022-11-23T06:55:04;98121.25;;;3.63
69186;BMP280;56298;49.246;9.410;2022-11-23T06:57:30;98122.59;;;3.56
69186;BMP280;56298;49.246;9.410;2022-11-23T06:59:55;98118.19;;;3.52
69186;BMP280;56298;49.246;9.410;2022-11-23T07:02:20;98119.19;;;3.59
69186;BMP280;56298;49.246;9.410;2022-11-23T07:04:45;98127.22;;;3.56
69186;BMP280;56298;49.246;9.410;2022-11-23T07:07:11;98125.06;;;3.62
69186;BMP280;56298;49.246;9.410;2022-11-23T07:09:36;98134.44;;;3.64
69186;BMP280;56298;49.246;9.410;2022-11-23T07:12:02;98131.13;;;3.80
69186;BMP280;56298;49.246;9.410;2022-11-23T07:14:27;98132.63;;;4.02
69186;BMP280;56298;49.246;9.410;2022-11-23T07:16:53;98137.84;;;4.32
69186;BMP280;56298;49.246;9.410;2022-11-23T07:19:18;98134.34;;;4.57
69186;BMP280;56298;49.246;9.410;2022-11-23T07:21:44;98140.78;;;4.64
69186;BMP280;56298;49.246;9.410;2022-11-23T07:24:09;98133.97;;;4.83
69186;BMP280;56298;49.246;9.410;2022-11-23T07:26:34;98134.03;;;4.87
69186;BMP280;56298;49.246;9.410;2022-11-23T07:29:00;98143.84;;;5.16
69186;BMP280;56298;49.246;9.410;2022-11-23T07:31:25;98143.28;;;5.39
69186;BMP280;56298;49.246;9.410;2022-11-23T07:33:50;98139.69;;;5.35
69186;BMP280;56298;49.246;9.410;2022-11-23T07:36:16;98137.22;;;5.30
69186;BMP280;56298;49.246;9.410;2022-11-23T07:38:41;98143.84;;;5.16
69186;BMP280;56298;49.246;9.410;2022-11-23T07:41:06;98143.44;;;4.89
69186;BMP280;56298;49.246;9.410;2022-11-23T07:43:32;98141.28;;;4.95
69186;BMP280;56298;49.246;9.410;2022-11-23T07:45:57;98141.59;;;4.65
69186;BMP280;56298;49.246;9.410;2022-11-23T07:48:23;98136.22;;;4.69
69186;BMP280;56298;49.246;9.410;2022-11-23T07:50:51;98138.81;;;5.02
69186;BMP280;56298;49.246;9.410;2022-11-23T07:53:16;98143.72;;;5.41
69186;BMP280;56298;49.246;9.410;2022-11-23T07:55:42;98141.25;;;5.65
69186;BMP280;56298;49.246;9.410;2022-11-23T07:58:08;98147.19;;;6.15
69186;BMP280;56298;49.246;9.410;2022-11-23T08:00:33;98143.22;;;6.64
69186;BMP280;56298;49.246;9.410;2022-11-23T08:02:58;98145.56;;;7.02
69186;BMP280;56298;49.246;9.410;2022-11-23T08:05:24;98147.34;;;7.33
69186;BMP280;56298;49.246;9.410;2022-11-23T08:07:50;98150.78;;;7.73
69186;BMP280;56298;49.246;9.410;2022-11-23T08:10:16;98152.25;;;8.14
69186;BMP280;56298;49.246;9.410;2022-11-23T08:12:41;98145.78;;;8.53
69186;BMP280;56298;49.246;9.410;2022-11-23T08:15:07;98147.97;;;8.70
69186;BMP280;56298;49.246;9.410;2022-11-23T08:17:33;98141.97;;;8.88
69186;BMP280;56298;49.246;9.410;2022-11-23T08:19:58;98145.91;;;8.90
69186;BMP280;56298;49.246;9.410;2022-11-23T08:22:23;98148.78;;;9.01
69186;BMP280;56298;49.246;9.410;2022-11-23T08:24:50;98148.03;;;9.04
69186;BMP280;56298;49.246;9.410;2022-11-23T08:27:16;98157.22;;;9.23
69186;BMP280;56298;49.246;9.410;2022-11-23T08:29:41;98145.28;;;9.04
69186;BMP280;56298;49.246;9.410;2022-11-23T08:32:06;98146.34;;;8.96
69186;BMP280;56298;49.246;9.410;2022-11-23T08:34:32;98151.41;;;8.94
69186;BMP280;56298;49.246;9.410;2022-11-23T08:36:57;98157.13;;;8.82
69186;BMP280;56298;49.246;9.410;2022-11-23T08:39:22;98155.47;;;8.77
69186;BMP280;56298;49.246;9.410;2022-11-23T08:41:47;98160.91;;;8.73
69186;BMP280;56298;49.246;9.410;2022-11-23T08:44:13;98154.25;;;8.74
69186;BMP280;56298;49.246;9.410;2022-11-23T08:46:38;98147.66;;;8.75
69186;BMP280;56298;49.246;9.410;2022-11-23T08:49:04;98148.13;;;8.81
69186;BMP280;56298;49.246;9.410;2022-11-23T08:51:30;98146.88;;;8.75
69186;BMP280;56298;49.246;9.410;2022-11-23T08:53:55;98152.69;;;8.73
69186;BMP280;56298;49.246;9.410;2022-11-23T08:56:20;98149.97;;;8.73
69186;BMP280;56298;49.246;9.410;2022-11-23T08:58:46;98151.66;;;8.82
69186;BMP280;56298;49.246;9.410;2022-11-23T09:01:13;98154.75;;;8.80
69186;BMP280;56298;49.246;9.410;2022-11-23T09:03:39;98146.56;;;8.84
69186;BMP280;56298;49.246;9.410;2022-11-23T09:06:04;98159.88;;;8.82
69186;BMP280;56298;49.246;9.410;2022-11-23T09:08:30;98158.59;;;8.75
69186;BMP280;56298;49.246;9.410;2022-11-23T09:11:00;98161.03;;;8.84
69186;BMP280;56298;49.246;9.410;2022-11-23T09:13:25;98161.19;;;8.95
69186;BMP280;56298;49.246;9.410;2022-11-23T09:15:50;98158.19;;;9.08
69186;BMP280;56298;49.246;9.410;2022-11-23T09:18:15;98161.91;;;9.26
69186;BMP280;56298;49.246;9.410;2022-11-23T09:20:41;98159.31;;;9.37
69186;BMP280;56298;49.246;9.410;2022-11-23T09:23:07;98157.88;;;9.47
69186;BMP280;56298;49.246;9.410;2022-11-23T09:25:33;98161.00;;;9.49
69186;BMP280;56298;49.246;9.410;2022-11-23T09:27:58;98164.59;;;9.57
69186;BMP280;56298;49.246;9.410;2022-11-23T09:30:24;98160.72;;;9.62
69186;BMP280;56298;49.246;9.410;2022-11-23T09:32:50;98159.66;;;9.70
69186;BMP280;56298;49.246;9.410;2022-11-23T09:35:15;98152.66;;;9.76
69186;BMP280;56298;49.246;9.410;2022-11-23T09:37:40;98158.59;;;9.85
69186;BMP280;56298;49.246;9.410;2022-11-23T09:40:06;98154.78;;;10.01
69186;BMP280;56298;49.246;9.410;2022-11-23T09:42:37;98160.00;;;10.13
69186;BMP280;56298;49.246;9.410;2022-11-23T09:45:39;98164.00;;;10.27
69186;BMP280;56298;49.246;9.410;2022-11-23T09:48:33;98165.56;;;10.28
69186;BMP280;56298;49.246;9.410;2022-11-23T09:51:06;98155.09;;;10.41
69186;BMP280;56298;49.246;9.410;2022-11-23T09:56:16;98148.53;;;10.56
69186;BMP280;56298;49.246;9.410;2022-11-23T09:58:42;98150.91;;;10.65
69186;BMP280;56298;49.246;9.410;2022-11-23T10:01:13;98148.59;;;10.75
69186;BMP280;56298;49.246;9.410;2022-11-23T10:03:41;98147.03;;;10.74
69186;BMP280;56298;49.246;9.410;2022-11-23T10:06:16;98143.53;;;10.88
69186;BMP280;56298;49.246;9.410;2022-11-23T10:09:11;98141.28;;;11.08
69186;BMP280;56298;49.246;9.410;2022-11-23T10:17:40;98135.88;;;11.69
69186;BMP280;56298;49.246;9.410;2022-11-23T10:23:30;98128.31;;;12.39
69186;BMP280;56298;49.246;9.410;2022-11-23T10:25:59;98136.50;;;12.57
69186;BMP280;56298;49.246;9.410;2022-11-23T10:28:28;98135.75;;;12.49
69186;BMP280;56298;49.246;9.410;2022-11-23T10:31:20;98127.50;;;12.46
69186;BMP280;56298;49.246;9.410;2022-11-23T10:34:00;98120.00;;;12.53
69186;BMP280;56298;49.246;9.410;2022-11-23T10:36:28;98122.00;;;12.53
69186;BMP280;56298;49.246;9.410;2022-11-23T10:38:57;98117.69;;;12.52
69186;BMP280;56298;49.246;9.410;2022-11-23T10:41:23;98115.25;;;12.68
69186;BMP280;56298;49.246;9.410;2022-11-23T10:43:50;98118.38;;;12.63
69186;BMP280;56298;49.246;9.410;2022-11-23T10:48:55;98111.25;;;12.80
69186;BMP280;56298;49.246;9.410;2022-11-23T10:51:32;98114.00;;;12.84
69186;BMP280;56298;49.246;9.410;2022-11-23T10:54:01;98108.84;;;12.90
69186;BMP280;56298;49.246;9.410;2022-11-23T10:56:28;98117.88;;;12.90
69186;BMP280;56298;49.246;9.410;2022-11-23T10:58:53;98114.22;;;13.11
69186;BMP280;56298;49.246;9.410;2022-11-23T11:01:22;98114.19;;;13.15
69186;BMP280;56298;49.246;9.410;2022-11-23T11:03:49;98111.84;;;13.14
69186;BMP280;56298;49.246;9.410;2022-11-23T11:06:30;98107.81;;;13.29
69186;BMP280;56298;49.246;9.410;2022-11-23T11:09:17;98100.41;;;13.22
69186;BMP280;56298;49.246;9.410;2022-11-23T11:11:47;98097.88;;;13.39
69186;BMP280;56298;49.246;9.410;2022-11-23T11:14:21;98092.31;;;13.50
69186;BMP280;56298;49.246;9.410;2022-11-23T11:16:54;98098.00;;;13.24
69186;BMP280;56298;49.246;9.410;2022-11-23T11:19:25;98100.34;;;13.26
69186;BMP280;56298;49.246;9.410;2022-11-23T11:21:51;98097.03;;;13.46
69186;BMP280;56298;49.246;9.410;2022-11-23T11:24:38;98090.66;;;13.60
69186;BMP280;56298;49.246;9.410;2022-11-23T11:27:14;98093.44;;;13.52
69186;BMP280;56298;49.246;9.410;2022-11-23T11:35:14;98084.88;;;13.89
69186;BMP280;56298;49.246;9.410;2022-11-23T11:37:46;98083.22;;;13.95
69186;BMP280;56298;49.246;9.410;2022-11-23T11:40:25;98074.97;;;13.91
69186;BMP280;56298;49.246;9.410;2022-11-23T11:45:27;98075.81;;;13.88
69186;BMP280;56298;49.246;9.410;2022-11-23T11:48:02;98072.72;;;13.82
69186;BMP280;56298;49.246;9.410;2022-11-23T11:50:40;98069.53;;;13.88
69186;BMP280;56298;49.246;9.410;2022-11-23T11:53:11;98064.72;;;13.95
69186;BMP280;56298;49.246;9.410;2022-11-23T11:58:14;98068.69;;;13.94
69186;BMP280;56298;49.246;9.410;2022-11-23T12:00:40;98064.13;;;13.77
69186;BMP280;56298;49.246;9.410;2022-11-23T12:03:22;98069.94;;;13.86
69186;BMP280;56298;49.246;9.410;2022-11-23T12:05:51;98059.75;;;13.79
69186;BMP280;56298;49.246;9.410;2022-11-23T12:08:23;98065.69;;;13.78
69186;BMP280;56298;49.246;9.410;2022-11-23T12:10:57;98056.19;;;13.82
69186;BMP280;56298;49.246;9.410;2022-11-23T12:13:26;98047.22;;;13.75
69186;BMP280;56298;49.246;9.410;2022-11-23T12:19:08;98045.16;;;13.82
69186;BMP280;56298;49.246;9.410;2022-11-23T12:27:55;98041.84;;;13.64
69186;BMP280;56298;49.246;9.410;2022-11-23T12:30:42;98033.25;;;13.55
69186;BMP280;56298;49.246;9.410;2022-11-23T12:49:13;98018.84;;;12.90
69186;BMP280;56298;49.246;9.410;2022-11-23T12:51:53;98023.66;;;12.75
69186;BMP280;56298;49.246;9.410;2022-11-23T12:54:34;98020.88;;;12.82
69186;BMP280;56298;49.246;9.410;2022-11-23T12:59:45;98017.88;;;12.59
69186;BMP280;56298;49.246;9.410;2022-11-23T13:07:55;98014.19;;;12.05
69186;BMP280;56298;49.246;9.410;2022-11-23T13:10:33;98013.78;;;12.03
69186;BMP280;56298;49.246;9.410;2022-11-23T13:19:23;98014.22;;;11.91
69186;BMP280;56298;49.246;9.410;2022-11-23T13:21:51;98008.78;;;11.65
69186;BMP280;56298;49.246;9.410;2022-11-23T13:24:29;97996.25;;;11.43
69186;BMP280;56298;49.246;9.410;2022-11-23T13:32:55;97997.84;;;11.36
69186;BMP280;56298;49.246;9.410;2022-11-23T13:40:29;98001.78;;;11.39
69186;BMP280;56298;49.246;9.410;2022-11-23T13:43:29;97996.31;;;11.24
69186;BMP280;56298;49.246;9.410;2022-11-23T13:48:49;97982.19;;;11.15
69186;BMP280;56298;49.246;9.410;2022-11-23T13:51:23;97976.69;;;10.97
69186;BMP280;56298;49.246;9.410;2022-11-23T13:54:01;97979.41;;;10.82
69186;BMP280;56298;49.246;9.410;2022-11-23T13:56:41;97973.53;;;10.73
69186;BMP280;56298;49.246;9.410;2022-11-23T13:59:24;97971.16;;;10.71
69186;BMP280;56298;49.246;9.410;2022-11-23T14:04:36;97974.72;;;10.83
69186;BMP280;56298;49.246;9.410;2022-11-23T14:07:22;97971.19;;;10.79
69186;BMP280;56298;49.246;9.410;2022-11-23T14:10:22;97973.16;;;10.75
69186;BMP280;56298;49.246;9.410;2022-11-23T14:12:53;97972.34;;;10.67
69186;BMP280;56298;49.246;9.410;2022-11-23T14:15:29;97964.09;;;10.60
69186;BMP280;56298;49.246;9.410;2022-11-23T14:21:11;97950.38;;;10.41
69186;BMP280;56298;49.246;9.410;2022-11-23T14:33:09;97924.00;;;9.97
69186;BMP280;56298;49.246;9.410;2022-11-23T14:35:31;97922.00;;;9.79
69186;BMP280;56298;49.246;9.410;2022-11-23T14:38:26;97925.44;;;9.69
69186;BMP280;56298;49.246;9.410;2022-11-23T14:41:03;97934.03;;;9.67
69186;BMP280;56298;49.246;9.410;2022-11-23T14:43:35;97934.44;;;9.69
69186;BMP280;56298;49.246;9.410;2022-11-23T14:46:02;97935.94;;;9.59
69186;BMP280;56298;49.246;9.410;2022-11-23T14:48:30;97934.38;;;9.58
69186;BMP280;56298;49.246;9.410;2022-11-23T14:50:59;97934.38;;;9.58
69186;BMP280;56298;49.246;9.410;2022-11-23T14:53:28;97931.59;;;9.51
69186;BMP280;56298;49.246;9.410;2022-11-23T14:55:55;97940.91;;;9.43
69186;BMP280;56298;49.246;9.410;2022-11-23T14:58:21;97939.75;;;9.40
69186;BMP280;56298;49.246;9.410;2022-11-23T15:00:49;97936.09;;;9.25
69186;BMP280;56298;49.246;9.410;2022-11-23T15:03:20;97932.44;;;9.07
69186;BMP280;56298;49.246;9.410;2022-11-23T15:05:52;97930.41;;;8.96
69186;BMP280;56298;49.246;9.410;2022-11-23T15:08:22;97931.09;;;8.86
69186;BMP280;56298;49.246;9.410;2022-11-23T15:11:04;97924.31;;;8.72
69186;BMP280;56298;49.246;9.410;2022-11-23T15:13:44;97928.16;;;8.60
69186;BMP280;56298;49.246;9.410;2022-11-23T15:16:12;97918.72;;;8.54
69186;BMP280;56298;49.246;9.410;2022-11-23T15:18:37;97915.81;;;8.40
69186;BMP280;56298;49.246;9.410;2022-11-23T15:21:15;97916.53;;;8.33
69186;BMP280;56298;49.246;9.410;2022-11-23T15:23:49;97909.47;;;8.28
69186;BMP280;56298;49.246;9.410;2022-11-23T15:26:28;97917.94;;;8.19
69186;BMP280;56298;49.246;9.410;2022-11-23T15:28:53;97926.88;;;8.16
69186;BMP280;56298;49.246;9.410;2022-11-23T15:31:43;97921.69;;;8.07
69186;BMP280;56298;49.246;9.410;2022-11-23T15:34:15;97927.53;;;8.06
69186;BMP280;56298;49.246;9.410;2022-11-23T15:36:42;97934.09;;;8.01
69186;BMP280;56298;49.246;9.410;2022-11-23T15:39:15;97937.09;;;7.92
69186;BMP280;56298;49.246;9.410;2022-11-23T15:41:41;97936.16;;;7.81
69186;BMP280;56298;49.246;9.410;2022-11-23T15:44:20;97937.59;;;7.71
69186;BMP280;56298;49.246;9.410;2022-11-23T15:46:50;97928.56;;;7.67
69186;BMP280;56298;49.246;9.410;2022-11-23T15:49:15;97924.19;;;7.62
69186;BMP280;56298;49.246;9.410;2022-11-23T15:51:44;97920.06;;;7.45
69186;BMP280;56298;49.246;9.410;2022-11-23T15:54:24;97920.75;;;7.38
69186;BMP280;56298;49.246;9.410;2022-11-23T15:56:52;97926.41;;;7.26
69186;BMP280;56298;49.246;9.410;2022-11-23T15:59:45;97924.06;;;7.24
69186;BMP280;56298;49.246;9.410;2022-11-23T16:02:18;97921.03;;;7.06